sensor_id;sensor_type;location;lat;lon;timestamp;temperature;humidity
52058;DHT22;38063;53.210;6.504;2022-08-21T00:00:53;15.60;99.90
52058;DHT22;38063;53.210;6.504;2022-08-21T00:03:19;15.50;99.90
52058;DHT22;38063;53.210;6.504;2022-08-21T00:05:47;15.50;99.90
52058;DHT22;38063;53.210;6.504;2022-08-21T00:08:15;15.50;99.90
52058;DHT22;38063;53.210;6.504;2022-08-21T00:10:42;15.50;99.90
52058;DHT22;38063;53.210;6.504;2022-08-21T00:13:08;15.50;99.90
52058;DHT22;38063;53.210;6.504;2022-08-21T00:15:36;15.40;99.90
52058;DHT22;38063;53.210;6.504;2022-08-21T00:18:03;15.40;99.90
52058;DHT22;38063;53.210;6.504;2022-08-21T00:20:29;15.40;99.90
52058;DHT22;38063;53.210;6.504;2022-08-21T00:22:55;15.40;99.90
52058;DHT22;38063;53.210;6.504;2022-08-21T00:25:21;15.30;99.90
52058;DHT22;38063;53.210;6.504;2022-08-21T00:27:47;15.30;99.90
52058;DHT22;38063;53.210;6.504;2022-08-21T00:30:16;15.30;99.90
52058;DHT22;38063;53.210;6.504;2022-08-21T00:32:43;15.20;99.90
52058;DHT22;38063;53.210;6.504;2022-08-21T00:35:14;15.20;99.90
52058;DHT22;38063;53.210;6.504;2022-08-21T00:37:40;15.30;99.90
52058;DHT22;38063;53.210;6.504;2022-08-21T00:40:10;15.20;99.90
52058;DHT22;38063;53.210;6.504;2022-08-21T00:42:36;15.10;99.90
52058;DHT22;38063;53.210;6.504;2022-08-21T00:45:03;15.10;99.90
52058;DHT22;38063;53.210;6.504;2022-08-21T00:47:28;15.10;99.90
52058;DHT22;38063;53.210;6.504;2022-08-21T00:49:54;15.00;99.90
52058;DHT22;38063;53.210;6.504;2022-08-21T00:52:24;15.00;99.90
52058;DHT22;38063;53.210;6.504;2022-08-21T00:54:50;15.00;99.90
52058;DHT22;38063;53.210;6.504;2022-08-21T00:57:26;14.90;99.90
52058;DHT22;38063;53.210;6.504;2022-08-21T00:59:53;14.90;99.90
52058;DHT22;38063;53.210;6.504;2022-08-21T01:02:21;14.80;99.90
52058;DHT22;38063;53.210;6.504;2022-08-21T01:04:47;14.80;99.90
52058;DHT22;38063;53.210;6.504;2022-08-21T01:07:13;14.90;99.90
52058;DHT22;38063;53.210;6.504;2022-08-21T01:09:39;14.80;99.90
52058;DHT22;38063;53.210;6.504;2022-08-21T01:12:05;14.80;99.90
52058;DHT22;38063;53.210;6.504;2022-08-21T01:14:31;14.80;99.90
52058;DHT22;38063;53.210;6.504;2022-08-21T01:16:58;14.80;99.90
52058;DHT22;38063;53.210;6.504;2022-08-21T01:19:25;14.70;99.90
52058;DHT22;38063;53.210;6.504;2022-08-21T01:21:51;14.80;99.90
52058;DHT22;38063;53.210;6.504;2022-08-21T01:24:17;14.80;99.90
52058;DHT22;38063;53.210;6.504;2022-08-21T01:26:44;14.70;99.90
52058;DHT22;38063;53.210;6.504;2022-08-21T01:31:54;14.70;99.90
52058;DHT22;38063;53.210;6.504;2022-08-21T01:34:20;14.70;99.90
52058;DHT22;38063;53.210;6.504;2022-08-21T01:36:46;14.70;99.90
52058;DHT22;38063;53.210;6.504;2022-08-21T01:39:12;14.70;99.90
52058;DHT22;38063;53.210;6.504;2022-08-21T01:41:38;14.60;99.90
52058;DHT22;38063;53.210;6.504;2022-08-21T01:44:04;14.60;99.90
52058;DHT22;38063;53.210;6.504;2022-08-21T01:46:30;14.60;99.90
52058;DHT22;38063;53.210;6.504;2022-08-21T01:48:56;14.60;99.90
52058;DHT22;38063;53.210;6.504;2022-08-21T01:51:22;14.60;99.90
52058;DHT22;38063;53.210;6.504;2022-08-21T01:53:47;14.60;99.90
52058;DHT22;38063;53.210;6.504;2022-08-21T01:56:14;14.50;99.90
52058;DHT22;38063;53.210;6.504;2022-08-21T01:58:42;14.60;99.90
52058;DHT22;38063;53.210;6.504;2022-08-21T02:01:08;14.50;99.90
52058;DHT22;38063;53.210;6.504;2022-08-21T02:03:34;14.60;99.90
52058;DHT22;38063;53.210;6.504;2022-08-21T02:06:00;14.50;99.90
52058;DHT22;38063;53.210;6.504;2022-08-21T02:08:28;14.60;99.90
52058;DHT22;38063;53.210;6.504;2022-08-21T02:10:53;14.60;99.90
52058;DHT22;38063;53.210;6.504;2022-08-21T02:13:19;14.50;99.90
52058;DHT22;38063;53.210;6.504;2022-08-21T02:15:45;14.50;99.90
52058;DHT22;38063;53.210;6.504;2022-08-21T02:18:11;14.50;99.90
52058;DHT22;38063;53.210;6.504;2022-08-21T02:20:43;14.50;99.90
52058;DHT22;38063;53.210;6.504;2022-08-21T02:23:11;14.50;99.90
52058;DHT22;38063;53.210;6.504;2022-08-21T02:25:38;14.40;99.90
52058;DHT22;38063;53.210;6.504;2022-08-21T02:28:10;14.40;99.90
52058;DHT22;38063;53.210;6.504;2022-08-21T02:30:39;14.40;99.90
52058;DHT22;38063;53.210;6.504;2022-08-21T02:33:07;14.40;99.90
52058;DHT22;38063;53.210;6.504;2022-08-21T02:35:33;14.40;99.90
52058;DHT22;38063;53.210;6.504;2022-08-21T02:38:03;14.40;99.90
52058;DHT22;38063;53.210;6.504;2022-08-21T02:40:33;14.30;99.90
52058;DHT22;38063;53.210;6.504;2022-08-21T02:43:00;14.30;99.90
52058;DHT22;38063;53.210;6.504;2022-08-21T02:45:26;14.50;99.90
52058;DHT22;38063;53.210;6.504;2022-08-21T02:47:59;14.30;99.90
52058;DHT22;38063;53.210;6.504;2022-08-21T02:50:38;14.30;99.90
52058;DHT22;38063;53.210;6.504;2022-08-21T02:53:05;14.20;99.90
52058;DHT22;38063;53.210;6.504;2022-08-21T02:55:32;14.20;99.90
52058;DHT22;38063;53.210;6.504;2022-08-21T02:57:59;14.20;99.90
52058;DHT22;38063;53.210;6.504;2022-08-21T03:00:27;14.20;99.90
52058;DHT22;38063;53.210;6.504;2022-08-21T03:02:53;14.20;99.90
52058;DHT22;38063;53.210;6.504;2022-08-21T03:05:21;14.20;99.90
52058;DHT22;38063;53.210;6.504;2022-08-21T03:07:47;14.30;99.90
52058;DHT22;38063;53.210;6.504;2022-08-21T03:10:14;14.20;99.90
52058;DHT22;38063;53.210;6.504;2022-08-21T03:12:39;14.10;99.90
52058;DHT22;38063;53.210;6.504;2022-08-21T03:15:07;14.20;99.90
52058;DHT22;38063;53.210;6.504;2022-08-21T03:17:34;14.20;99.90
52058;DHT22;38063;53.210;6.504;2022-08-21T03:20:00;14.20;99.90
52058;DHT22;38063;53.210;6.504;2022-08-21T03:22:26;14.10;99.90
52058;DHT22;38063;53.210;6.504;2022-08-21T03:24:52;14.10;99.90
52058;DHT22;38063;53.210;6.504;2022-08-21T03:27:19;14.10;99.90
52058;DHT22;38063;53.210;6.504;2022-08-21T03:29:44;14.10;99.90
52058;DHT22;38063;53.210;6.504;2022-08-21T03:32:10;14.10;99.90
52058;DHT22;38063;53.210;6.504;2022-08-21T03:34:37;14.10;99.90
52058;DHT22;38063;53.210;6.504;2022-08-21T03:37:03;14.10;99.90
52058;DHT22;38063;53.210;6.504;2022-08-21T03:39:29;14.10;99.90
52058;DHT22;38063;53.210;6.504;2022-08-21T03:41:55;14.00;99.90
52058;DHT22;38063;53.210;6.504;2022-08-21T03:44:21;14.00;99.90
52058;DHT22;38063;53.210;6.504;2022-08-21T03:46:47;14.00;99.90
52058;DHT22;38063;53.210;6.504;2022-08-21T03:49:12;14.00;99.90
52058;DHT22;38063;53.210;6.504;2022-08-21T03:51:38;14.00;99.90
52058;DHT22;38063;53.210;6.504;2022-08-21T03:54:04;14.00;99.90
52058;DHT22;38063;53.210;6.504;2022-08-21T03:56:30;14.00;99.90
52058;DHT22;38063;53.210;6.504;2022-08-21T03:58:56;13.90;99.90
52058;DHT22;38063;53.210;6.504;2022-08-21T04:01:21;13.90;99.90
52058;DHT22;38063;53.210;6.504;2022-08-21T04:03:47;13.90;99.90
52058;DHT22;38063;53.210;6.504;2022-08-21T04:06:13;13.90;99.90
52058;DHT22;38063;53.210;6.504;2022-08-21T04:08:38;14.10;99.90
52058;DHT22;38063;53.210;6.504;2022-08-21T04:11:05;13.90;99.90
52058;DHT22;38063;53.210;6.504;2022-08-21T04:13:31;14.10;99.90
52058;DHT22;38063;53.210;6.504;2022-08-21T04:15:57;13.90;99.90
52058;DHT22;38063;53.210;6.504;2022-08-21T04:18:24;13.90;99.90
52058;DHT22;38063;53.210;6.504;2022-08-21T04:20:51;13.90;99.90
52058;DHT22;38063;53.210;6.504;2022-08-21T04:23:21;13.80;99.90
52058;DHT22;38063;53.210;6.504;2022-08-21T04:25:47;13.80;99.90
52058;DHT22;38063;53.210;6.504;2022-08-21T04:28:13;13.80;99.90
52058;DHT22;38063;53.210;6.504;2022-08-21T04:30:39;13.90;99.90
52058;DHT22;38063;53.210;6.504;2022-08-21T04:33:04;13.80;99.90
52058;DHT22;38063;53.210;6.504;2022-08-21T04:35:30;13.80;99.90
52058;DHT22;38063;53.210;6.504;2022-08-21T04:37:57;13.80;99.90
52058;DHT22;38063;53.210;6.504;2022-08-21T04:40:24;13.80;99.90
52058;DHT22;38063;53.210;6.504;2022-08-21T04:42:53;13.80;99.90
52058;DHT22;38063;53.210;6.504;2022-08-21T04:45:40;13.80;99.90
52058;DHT22;38063;53.210;6.504;2022-08-21T04:48:10;13.90;99.90
52058;DHT22;38063;53.210;6.504;2022-08-21T04:50:42;13.90;99.90
52058;DHT22;38063;53.210;6.504;2022-08-21T04:53:27;13.80;99.90
52058;DHT22;38063;53.210;6.504;2022-08-21T04:55:56;13.80;99.90
52058;DHT22;38063;53.210;6.504;2022-08-21T04:58:24;13.80;99.90
52058;DHT22;38063;53.210;6.504;2022-08-21T05:00:54;13.90;99.90
52058;DHT22;38063;53.210;6.504;2022-08-21T05:03:20;13.90;99.90
52058;DHT22;38063;53.210;6.504;2022-08-21T05:05:47;14.00;99.90
52058;DHT22;38063;53.210;6.504;2022-08-21T05:08:17;13.90;99.90
52058;DHT22;38063;53.210;6.504;2022-08-21T05:10:43;14.00;99.90
52058;DHT22;38063;53.210;6.504;2022-08-21T05:13:10;13.90;99.90
52058;DHT22;38063;53.210;6.504;2022-08-21T05:15:38;14.00;99.90
52058;DHT22;38063;53.210;6.504;2022-08-21T05:18:04;14.00;99.90
52058;DHT22;38063;53.210;6.504;2022-08-21T05:20:29;14.00;99.90
52058;DHT22;38063;53.210;6.504;2022-08-21T05:22:56;14.00;99.90
52058;DHT22;38063;53.210;6.504;2022-08-21T05:25:22;14.10;99.90
52058;DHT22;38063;53.210;6.504;2022-08-21T05:27:47;14.00;99.90
52058;DHT22;38063;53.210;6.504;2022-08-21T05:30:13;14.10;99.90
52058;DHT22;38063;53.210;6.504;2022-08-21T05:32:39;14.10;99.90
52058;DHT22;38063;53.210;6.504;2022-08-21T05:35:07;14.50;99.90
52058;DHT22;38063;53.210;6.504;2022-08-21T05:37:33;14.10;99.90
52058;DHT22;38063;53.210;6.504;2022-08-21T05:39:59;14.20;99.90
52058;DHT22;38063;53.210;6.504;2022-08-21T05:42:25;14.20;99.90
52058;DHT22;38063;53.210;6.504;2022-08-21T05:44:51;14.20;99.90
52058;DHT22;38063;53.210;6.504;2022-08-21T05:47:16;14.30;99.90
52058;DHT22;38063;53.210;6.504;2022-08-21T05:49:42;14.30;99.90
52058;DHT22;38063;53.210;6.504;2022-08-21T05:52:07;14.40;99.90
52058;DHT22;38063;53.210;6.504;2022-08-21T05:54:34;14.70;99.90
52058;DHT22;38063;53.210;6.504;2022-08-21T05:57:01;14.50;99.90
52058;DHT22;38063;53.210;6.504;2022-08-21T05:59:26;14.60;99.90
52058;DHT22;38063;53.210;6.504;2022-08-21T06:01:53;14.70;99.90
52058;DHT22;38063;53.210;6.504;2022-08-21T06:04:19;14.70;99.90
52058;DHT22;38063;53.210;6.504;2022-08-21T06:06:45;14.70;99.90
52058;DHT22;38063;53.210;6.504;2022-08-21T06:09:10;14.80;99.90
52058;DHT22;38063;53.210;6.504;2022-08-21T06:11:36;14.90;99.90
52058;DHT22;38063;53.210;6.504;2022-08-21T06:14:01;14.90;99.90
52058;DHT22;38063;53.210;6.504;2022-08-21T06:16:28;15.00;99.90
52058;DHT22;38063;53.210;6.504;2022-08-21T06:18:53;15.10;99.90
52058;DHT22;38063;53.210;6.504;2022-08-21T06:21:19;15.20;99.90
52058;DHT22;38063;53.210;6.504;2022-08-21T06:23:45;15.30;99.90
52058;DHT22;38063;53.210;6.504;2022-08-21T06:26:12;15.50;99.90
52058;DHT22;38063;53.210;6.504;2022-08-21T06:28:39;15.60;99.90
52058;DHT22;38063;53.210;6.504;2022-08-21T06:31:25;15.90;99.90
52058;DHT22;38063;53.210;6.504;2022-08-21T06:33:51;16.20;99.90
52058;DHT22;38063;53.210;6.504;2022-08-21T06:36:18;16.50;99.90
52058;DHT22;38063;53.210;6.504;2022-08-21T06:38:43;16.80;99.90
52058;DHT22;38063;53.210;6.504;2022-08-21T06:41:10;17.10;99.90
52058;DHT22;38063;53.210;6.504;2022-08-21T06:43:36;17.30;99.90
52058;DHT22;38063;53.210;6.504;2022-08-21T06:46:01;17.50;99.90
52058;DHT22;38063;53.210;6.504;2022-08-21T06:48:27;17.80;99.90
52058;DHT22;38063;53.210;6.504;2022-08-21T06:50:55;17.90;99.90
52058;DHT22;38063;53.210;6.504;2022-08-21T06:53:21;18.20;99.90
52058;DHT22;38063;53.210;6.504;2022-08-21T06:55:48;18.30;99.90
52058;DHT22;38063;53.210;6.504;2022-08-21T06:58:14;18.60;99.90
52058;DHT22;38063;53.210;6.504;2022-08-21T07:00:42;18.80;99.90
52058;DHT22;38063;53.210;6.504;2022-08-21T07:03:21;19.00;99.90
52058;DHT22;38063;53.210;6.504;2022-08-21T07:05:47;19.10;99.90
52058;DHT22;38063;53.210;6.504;2022-08-21T07:08:13;19.30;99.90
52058;DHT22;38063;53.210;6.504;2022-08-21T07:10:38;19.50;99.90
52058;DHT22;38063;53.210;6.504;2022-08-21T07:13:04;19.50;99.90
52058;DHT22;38063;53.210;6.504;2022-08-21T07:15:30;19.70;99.90
52058;DHT22;38063;53.210;6.504;2022-08-21T07:17:57;19.80;99.90
52058;DHT22;38063;53.210;6.504;2022-08-21T07:20:22;20.00;99.90
52058;DHT22;38063;53.210;6.504;2022-08-21T07:22:48;20.00;99.90
52058;DHT22;38063;53.210;6.504;2022-08-21T07:25:13;20.20;99.90
52058;DHT22;38063;53.210;6.504;2022-08-21T07:27:39;20.40;99.90
52058;DHT22;38063;53.210;6.504;2022-08-21T07:30:05;20.50;99.90
52058;DHT22;38063;53.210;6.504;2022-08-21T07:32:31;20.70;99.90
52058;DHT22;38063;53.210;6.504;2022-08-21T07:34:57;20.80;99.90
52058;DHT22;38063;53.210;6.504;2022-08-21T07:37:23;21.00;99.90
52058;DHT22;38063;53.210;6.504;2022-08-21T07:39:48;21.10;99.90
52058;DHT22;38063;53.210;6.504;2022-08-21T07:42:15;21.20;99.90
52058;DHT22;38063;53.210;6.504;2022-08-21T07:44:41;21.40;99.90
52058;DHT22;38063;53.210;6.504;2022-08-21T07:47:06;21.50;99.90
52058;DHT22;38063;53.210;6.504;2022-08-21T07:49:32;21.60;99.90
52058;DHT22;38063;53.210;6.504;2022-08-21T07:51:57;21.70;99.90
52058;DHT22;38063;53.210;6.504;2022-08-21T07:54:23;21.70;99.90
52058;DHT22;38063;53.210;6.504;2022-08-21T07:56:49;22.00;99.90
52058;DHT22;38063;53.210;6.504;2022-08-21T07:59:14;22.10;99.90
52058;DHT22;38063;53.210;6.504;2022-08-21T08:01:40;22.30;99.90
52058;DHT22;38063;53.210;6.504;2022-08-21T08:04:06;22.30;99.90
52058;DHT22;38063;53.210;6.504;2022-08-21T08:06:32;22.40;99.90
52058;DHT22;38063;53.210;6.504;2022-08-21T08:08:57;22.30;99.90
52058;DHT22;38063;53.210;6.504;2022-08-21T08:11:23;22.20;99.90
52058;DHT22;38063;53.210;6.504;2022-08-21T08:13:51;22.20;99.90
52058;DHT22;38063;53.210;6.504;2022-08-21T08:16:17;22.20;99.90
52058;DHT22;38063;53.210;6.504;2022-08-21T08:18:44;22.30;99.90
52058;DHT22;38063;53.210;6.504;2022-08-21T08:21:11;22.40;99.90
52058;DHT22;38063;53.210;6.504;2022-08-21T08:23:37;22.40;99.90
52058;DHT22;38063;53.210;6.504;2022-08-21T08:26:03;22.20;99.90
52058;DHT22;38063;53.210;6.504;2022-08-21T08:28:30;22.10;99.90
52058;DHT22;38063;53.210;6.504;2022-08-21T08:30:57;22.10;99.90
52058;DHT22;38063;53.210;6.504;2022-08-21T08:33:22;22.20;99.90
52058;DHT22;38063;53.210;6.504;2022-08-21T08:35:50;22.40;99.90
52058;DHT22;38063;53.210;6.504;2022-08-21T08:38:18;22.60;99.90
52058;DHT22;38063;53.210;6.504;2022-08-21T08:41:00;22.80;99.90
52058;DHT22;38063;53.210;6.504;2022-08-21T08:43:31;23.00;99.90
52058;DHT22;38063;53.210;6.504;2022-08-21T08:45:59;23.20;99.90
52058;DHT22;38063;53.210;6.504;2022-08-21T08:48:52;23.30;99.90
52058;DHT22;38063;53.210;6.504;2022-08-21T08:51:25;23.40;99.90
52058;DHT22;38063;53.210;6.504;2022-08-21T08:54:00;23.50;99.90
52058;DHT22;38063;53.210;6.504;2022-08-21T08:56:30;23.50;99.90
52058;DHT22;38063;53.210;6.504;2022-08-21T08:59:03;23.50;99.90
52058;DHT22;38063;53.210;6.504;2022-08-21T09:01:32;23.30;99.90
52058;DHT22;38063;53.210;6.504;2022-08-21T09:03:57;23.30;99.90
52058;DHT22;38063;53.210;6.504;2022-08-21T09:06:28;23.20;99.90
52058;DHT22;38063;53.210;6.504;2022-08-21T09:09:11;23.00;99.90
52058;DHT22;38063;53.210;6.504;2022-08-21T09:15:09;22.60;99.90
52058;DHT22;38063;53.210;6.504;2022-08-21T09:20:22;23.00;99.90
52058;DHT22;38063;53.210;6.504;2022-08-21T09:28:38;23.80;99.90
52058;DHT22;38063;53.210;6.504;2022-08-21T09:31:22;23.90;99.90
52058;DHT22;38063;53.210;6.504;2022-08-21T09:33:48;24.10;99.90
52058;DHT22;38063;53.210;6.504;2022-08-21T09:36:27;24.30;99.90
52058;DHT22;38063;53.210;6.504;2022-08-21T09:38:54;24.50;99.90
52058;DHT22;38063;53.210;6.504;2022-08-21T09:41:28;24.70;99.90
52058;DHT22;38063;53.210;6.504;2022-08-21T09:43:54;25.00;99.90
52058;DHT22;38063;53.210;6.504;2022-08-21T09:46:23;25.00;99.90
52058;DHT22;38063;53.210;6.504;2022-08-21T09:48:54;25.20;99.90
52058;DHT22;38063;53.210;6.504;2022-08-21T09:51:27;25.40;99.90
52058;DHT22;38063;53.210;6.504;2022-08-21T09:54:19;25.60;99.90
52058;DHT22;38063;53.210;6.504;2022-08-21T09:57:46;25.80;99.90
52058;DHT22;38063;53.210;6.504;2022-08-21T10:02:45;25.10;99.90
52058;DHT22;38063;53.210;6.504;2022-08-21T10:05:19;25.30;99.90
52058;DHT22;38063;53.210;6.504;2022-08-21T10:07:45;25.60;99.90
52058;DHT22;38063;53.210;6.504;2022-08-21T10:10:21;25.50;99.90
52058;DHT22;38063;53.210;6.504;2022-08-21T10:13:13;25.60;99.90
52058;DHT22;38063;53.210;6.504;2022-08-21T10:15:56;25.70;99.90
52058;DHT22;38063;53.210;6.504;2022-08-21T10:19:28;25.90;99.40
52058;DHT22;38063;53.210;6.504;2022-08-21T10:24:23;26.10;99.00
52058;DHT22;38063;53.210;6.504;2022-08-21T10:51:40;24.00;99.90
52058;DHT22;38063;53.210;6.504;2022-08-21T10:54:51;23.70;99.90
52058;DHT22;38063;53.210;6.504;2022-08-21T10:57:17;23.50;99.90
52058;DHT22;38063;53.210;6.504;2022-08-21T10:59:55;23.30;99.90
52058;DHT22;38063;53.210;6.504;2022-08-21T11:05:24;23.10;99.90
52058;DHT22;38063;53.210;6.504;2022-08-21T11:16:09;24.20;99.90
52058;DHT22;38063;53.210;6.504;2022-08-21T11:18:39;24.60;99.90
52058;DHT22;38063;53.210;6.504;2022-08-21T11:24:14;25.30;99.90
52058;DHT22;38063;53.210;6.504;2022-08-21T11:26:49;25.60;99.90
52058;DHT22;38063;53.210;6.504;2022-08-21T11:29:23;25.80;99.50
52058;DHT22;38063;53.210;6.504;2022-08-21T11:35:21;26.40;99.10
52058;DHT22;38063;53.210;6.504;2022-08-21T11:38:20;26.80;99.20
52058;DHT22;38063;53.210;6.504;2022-08-21T11:40:59;27.10;96.90
52058;DHT22;38063;53.210;6.504;2022-08-21T11:43:40;27.20;96.60
52058;DHT22;38063;53.210;6.504;2022-08-21T12:02:53;25.60;97.40
52058;DHT22;38063;53.210;6.504;2022-08-21T12:05:34;25.70;97.10
52058;DHT22;38063;53.210;6.504;2022-08-21T12:08:28;25.90;95.70
52058;DHT22;38063;53.210;6.504;2022-08-21T12:11:24;26.40;95.30
52058;DHT22;38063;53.210;6.504;2022-08-21T12:14:12;26.70;95.20
52058;DHT22;38063;53.210;6.504;2022-08-21T12:16:44;26.80;92.70
52058;DHT22;38063;53.210;6.504;2022-08-21T12:19:29;26.80;93.40
52058;DHT22;38063;53.210;6.504;2022-08-21T12:24:40;26.70;93.10
52058;DHT22;38063;53.210;6.504;2022-08-21T12:27:28;26.70;93.00
52058;DHT22;38063;53.210;6.504;2022-08-21T12:29:56;26.90;93.20
52058;DHT22;38063;53.210;6.504;2022-08-21T12:35:18;27.30;92.20
52058;DHT22;38063;53.210;6.504;2022-08-21T12:38:12;27.30;91.50
52058;DHT22;38063;53.210;6.504;2022-08-21T12:40:43;27.30;92.20
52058;DHT22;38063;53.210;6.504;2022-08-21T12:43:19;27.20;92.50
52058;DHT22;38063;53.210;6.504;2022-08-21T12:45:48;27.10;92.00
52058;DHT22;38063;53.210;6.504;2022-08-21T12:49:03;26.70;91.40
52058;DHT22;38063;53.210;6.504;2022-08-21T12:51:16;26.40;90.80
52058;DHT22;38063;53.210;6.504;2022-08-21T12:53:47;26.10;91.20
52058;DHT22;38063;53.210;6.504;2022-08-21T12:56:17;25.90;91.90
52058;DHT22;38063;53.210;6.504;2022-08-21T12:58:47;25.70;91.80
52058;DHT22;38063;53.210;6.504;2022-08-21T13:01:22;25.40;91.70
52058;DHT22;38063;53.210;6.504;2022-08-21T13:03:50;25.30;91.60
52058;DHT22;38063;53.210;6.504;2022-08-21T13:06:18;25.30;91.70
52058;DHT22;38063;53.210;6.504;2022-08-21T13:08:45;25.30;91.40
52058;DHT22;38063;53.210;6.504;2022-08-21T13:11:15;25.40;91.20
52058;DHT22;38063;53.210;6.504;2022-08-21T13:13:43;25.60;91.40
52058;DHT22;38063;53.210;6.504;2022-08-21T13:16:09;25.50;90.80
52058;DHT22;38063;53.210;6.504;2022-08-21T13:18:39;25.50;90.90
52058;DHT22;38063;53.210;6.504;2022-08-21T13:21:16;25.50;91.00
52058;DHT22;38063;53.210;6.504;2022-08-21T13:23:42;25.70;91.40
52058;DHT22;38063;53.210;6.504;2022-08-21T13:26:20;25.90;91.90
52058;DHT22;38063;53.210;6.504;2022-08-21T13:28:47;26.00;91.70
52058;DHT22;38063;53.210;6.504;2022-08-21T13:31:20;26.00;91.60
52058;DHT22;38063;53.210;6.504;2022-08-21T13:33:48;25.80;91.30
52058;DHT22;38063;53.210;6.504;2022-08-21T13:36:18;25.60;91.20
52058;DHT22;38063;53.210;6.504;2022-08-21T13:38:46;25.50;91.20
52058;DHT22;38063;53.210;6.504;2022-08-21T13:41:30;25.40;91.70
52058;DHT22;38063;53.210;6.504;2022-08-21T13:44:35;25.50;91.70
52058;DHT22;38063;53.210;6.504;2022-08-21T13:46:53;25.50;91.20
52058;DHT22;38063;53.210;6.504;2022-08-21T13:49:26;25.30;91.00
52058;DHT22;38063;53.210;6.504;2022-08-21T13:51:52;25.20;91.30
52058;DHT22;38063;53.210;6.504;2022-08-21T13:54:33;25.10;92.10
52058;DHT22;38063;53.210;6.504;2022-08-21T13:56:59;25.20;92.10
52058;DHT22;38063;53.210;6.504;2022-08-21T13:59:27;25.20;92.10
52058;DHT22;38063;53.210;6.504;2022-08-21T14:02:00;25.00;91.70
52058;DHT22;38063;53.210;6.504;2022-08-21T14:04:50;25.00;91.70
52058;DHT22;38063;53.210;6.504;2022-08-21T14:07:21;25.00;92.10
52058;DHT22;38063;53.210;6.504;2022-08-21T14:09:51;24.80;92.00
52058;DHT22;38063;53.210;6.504;2022-08-21T14:12:29;24.70;91.90
52058;DHT22;38063;53.210;6.504;2022-08-21T14:14:58;24.50;91.90
52058;DHT22;38063;53.210;6.504;2022-08-21T14:17:33;24.40;91.80
52058;DHT22;38063;53.210;6.504;2022-08-21T14:19:59;24.40;91.70
52058;DHT22;38063;53.210;6.504;2022-08-21T14:30:33;24.30;92.10
52058;DHT22;38063;53.210;6.504;2022-08-21T14:33:00;24.30;91.60
52058;DHT22;38063;53.210;6.504;2022-08-21T14:35:27;24.30;91.40
52058;DHT22;38063;53.210;6.504;2022-08-21T14:37:53;24.30;91.40
52058;DHT22;38063;53.210;6.504;2022-08-21T14:40:21;24.40;91.60
52058;DHT22;38063;53.210;6.504;2022-08-21T14:42:47;24.30;91.40
52058;DHT22;38063;53.210;6.504;2022-08-21T14:45:26;24.30;91.50
52058;DHT22;38063;53.210;6.504;2022-08-21T14:47:54;24.10;91.20
52058;DHT22;38063;53.210;6.504;2022-08-21T14:50:20;24.00;91.60
52058;DHT22;38063;53.210;6.504;2022-08-21T14:52:45;24.00;91.70
52058;DHT22;38063;53.210;6.504;2022-08-21T14:55:13;24.20;91.90
52058;DHT22;38063;53.210;6.504;2022-08-21T14:57:50;24.40;91.70
52058;DHT22;38063;53.210;6.504;2022-08-21T15:00:21;24.60;91.40
52058;DHT22;38063;53.210;6.504;2022-08-21T15:02:50;24.60;91.00
52058;DHT22;38063;53.210;6.504;2022-08-21T15:05:17;24.70;90.90
52058;DHT22;38063;53.210;6.504;2022-08-21T15:07:42;24.70;90.80
52058;DHT22;38063;53.210;6.504;2022-08-21T15:10:11;24.70;90.60
52058;DHT22;38063;53.210;6.504;2022-08-21T15:12:37;24.70;90.60
52058;DHT22;38063;53.210;6.504;2022-08-21T15:15:05;24.70;90.50
52058;DHT22;38063;53.210;6.504;2022-08-21T15:17:31;24.70;90.30
52058;DHT22;38063;53.210;6.504;2022-08-21T15:19:57;24.70;90.40
52058;DHT22;38063;53.210;6.504;2022-08-21T15:22:23;24.70;90.30
52058;DHT22;38063;53.210;6.504;2022-08-21T15:24:48;24.60;90.30
52058;DHT22;38063;53.210;6.504;2022-08-21T15:27:17;24.70;90.60
52058;DHT22;38063;53.210;6.504;2022-08-21T15:29:43;24.60;90.70
52058;DHT22;38063;53.210;6.504;2022-08-21T15:34:45;24.30;91.10
52058;DHT22;38063;53.210;6.504;2022-08-21T15:37:11;24.10;91.50
52058;DHT22;38063;53.210;6.504;2022-08-21T15:39:37;24.00;92.00
52058;DHT22;38063;53.210;6.504;2022-08-21T15:42:03;23.80;92.40
52058;DHT22;38063;53.210;6.504;2022-08-21T15:44:29;23.80;92.70
52058;DHT22;38063;53.210;6.504;2022-08-21T15:46:55;23.80;92.90
52058;DHT22;38063;53.210;6.504;2022-08-21T15:49:22;23.80;93.20
52058;DHT22;38063;53.210;6.504;2022-08-21T15:51:48;23.80;93.30
52058;DHT22;38063;53.210;6.504;2022-08-21T15:54:14;23.70;92.80
52058;DHT22;38063;53.210;6.504;2022-08-21T15:56:42;23.60;92.80
52058;DHT22;38063;53.210;6.504;2022-08-21T15:59:13;23.60;93.00
52058;DHT22;38063;53.210;6.504;2022-08-21T16:01:40;23.50;93.50
52058;DHT22;38063;53.210;6.504;2022-08-21T16:04:06;23.60;93.70
52058;DHT22;38063;53.210;6.504;2022-08-21T16:06:32;23.50;93.80
52058;DHT22;38063;53.210;6.504;2022-08-21T16:08:58;23.50;93.90
52058;DHT22;38063;53.210;6.504;2022-08-21T16:11:24;23.50;94.10
52058;DHT22;38063;53.210;6.504;2022-08-21T16:13:50;23.60;94.20
52058;DHT22;38063;53.210;6.504;2022-08-21T16:16:18;23.50;94.20
52058;DHT22;38063;53.210;6.504;2022-08-21T16:18:45;23.40;94.40
52058;DHT22;38063;53.210;6.504;2022-08-21T16:21:11;23.30;94.50
52058;DHT22;38063;53.210;6.504;2022-08-21T16:23:37;23.30;94.40
52058;DHT22;38063;53.210;6.504;2022-08-21T16:26:04;23.20;94.20
52058;DHT22;38063;53.210;6.504;2022-08-21T16:28:30;23.10;94.50
52058;DHT22;38063;53.210;6.504;2022-08-21T16:30:56;23.00;94.50
52058;DHT22;38063;53.210;6.504;2022-08-21T16:33:24;23.00;94.70
52058;DHT22;38063;53.210;6.504;2022-08-21T16:35:52;22.90;94.50
52058;DHT22;38063;53.210;6.504;2022-08-21T16:38:18;22.90;94.70
52058;DHT22;38063;53.210;6.504;2022-08-21T16:40:44;22.80;94.70
52058;DHT22;38063;53.210;6.504;2022-08-21T16:43:09;22.70;94.70
52058;DHT22;38063;53.210;6.504;2022-08-21T16:45:36;22.50;94.60
52058;DHT22;38063;53.210;6.504;2022-08-21T16:48:02;22.50;94.90
52058;DHT22;38063;53.210;6.504;2022-08-21T16:50:30;22.50;95.00
52058;DHT22;38063;53.210;6.504;2022-08-21T16:52:56;22.50;95.10
52058;DHT22;38063;53.210;6.504;2022-08-21T16:55:22;22.40;95.30
52058;DHT22;38063;53.210;6.504;2022-08-21T16:57:47;22.30;95.20
52058;DHT22;38063;53.210;6.504;2022-08-21T17:00:13;22.30;95.30
52058;DHT22;38063;53.210;6.504;2022-08-21T17:02:43;22.20;95.20
52058;DHT22;38063;53.210;6.504;2022-08-21T17:05:10;22.20;95.30
52058;DHT22;38063;53.210;6.504;2022-08-21T17:07:37;22.20;95.40
52058;DHT22;38063;53.210;6.504;2022-08-21T17:10:05;22.20;95.30
52058;DHT22;38063;53.210;6.504;2022-08-21T17:12:31;22.10;95.50
52058;DHT22;38063;53.210;6.504;2022-08-21T17:15:02;22.10;95.60
52058;DHT22;38063;53.210;6.504;2022-08-21T17:17:29;22.00;95.80